Página principal
METAR-TAF:

METAR-TAF

Aeroportos :

Aeroporto de Kokshetau

Kokshetau, Cazaquistão

latitude: 53-19-48N, longitude: 069-35-48E, altura: 270 m

Observação actual do tempo

O boletim foi feito há 5 horas e 41 minutos, às 11:30 UTC
Vento 12 kt de sul
Temperatura 18°C
Humidade 34%
Pressão 1022 hPa
Visibilidade 10 km ou mais
sem nuvens abaixo de 1500 metros e sem cumulonimbus

METAR: UACK 181130Z 18006MPS CAVOK 18/02 Q1022 R20/010070 NOSIG RMK QFE743/0990

Hora: 23:11 (17:11 UTC)

Previsão

O boletim foi feito há 9 horas e 11 minutos, às 08:00 UTC
Previsão válida de 18 às 09 UTC a 18 às 18 UTC
Vento 10 kt de sul
Visibilidade 10 km ou mais
Nuvens dispersasa uma altura de 3000 ft
Nuvens fragmentadasa uma altura de 10000 ft
Temporariamente
de 18 às 09 UTC a 18 às 15 UTC
Vento 14 kt de su-sudoeste com rajadas de 23 kt
Nuvens dispersasa uma altura de 2000 ft

TAF: UACK 180800Z 1809/1818 17005MPS 9999 SCT030 BKN100 TEMPO 1809/1815 20007G12MPS SCT020

Observações e previsões do tempo de mais de 4000 aeroportos (mensagens METAR e TAF).

As estações disponíveis são os pontos amarelos e vermelhos sobre o mapa.

Mova o rato sobre o mapa para ver o nome da estação.

Depois clique no ponto para visualizar as observações e previsões meteorológicas.

Para alterar o mapa : clique nos botões verdes com uma cruz preta para aumentar o zoom; no botão verde com uma pitada de zoom; ou nas setas verdes para mapas adjacentes.


METAR-TAF: